Terminal Aerodrome Forecast
Issued by NWS

Home | Current Version | Previous Version | Text Only | Print | Product List | Glossary On
Versions: 1 2 3 4 5 6 7 8 9 10 11 12 13 14 15 16 17 18 19 20 21 22 23 24 25 26 27 28 29 30 31 32 33 34 35 36 37 38
000
FTUS43 KDLH 130103 AAA
TAFHIB
TAF AMD
KHIB 130103Z 1301/1324 15006KT 6SM -SN BKN014 OVC030
      TEMPO 1301/1302 3SM -SN
     FM130200 14006KT 6SM -SN BKN015 OVC025
     FM130600 14005KT 5SM -SN OVC008
     FM131100 07004KT 2SM -SN OVC008
     FM131400 04004KT 1SM -SN OVC009
     FM131800 36007KT P6SM -SN BKN015 OVC035=

USA.gov is the U.S. government's official web portal to all federal, state and local government web resources and services.